createdAt,value
2023-03-21T00:02:25.072Z,59.75
2023-03-21T00:05:15.728Z,59.56
2023-03-21T00:08:03.461Z,59.41
2023-03-21T00:10:58.340Z,59.41
2023-03-21T00:13:45.263Z,59.59
2023-03-21T00:16:35.806Z,59.46
2023-03-21T00:19:26.289Z,59.39
2023-03-21T00:22:14.173Z,59.43
2023-03-21T00:25:01.383Z,59.51
2023-03-21T00:28:05.212Z,59.58
2023-03-21T00:30:58.920Z,59.59
2023-03-21T00:33:45.955Z,59.76
2023-03-21T00:36:32.849Z,59.89
2023-03-21T00:39:19.815Z,59.61
2023-03-21T00:42:06.678Z,59.37
2023-03-21T00:44:53.530Z,59.67
2023-03-21T00:47:40.492Z,59.50
2023-03-21T00:50:27.598Z,59.71
2023-03-21T00:53:15.996Z,59.44
2023-03-21T00:56:02.878Z,59.91
2023-03-21T00:58:51.256Z,59.74
2023-03-21T01:01:38.432Z,59.82
2023-03-21T01:04:26.966Z,59.56
2023-03-21T01:07:13.932Z,59.62
2023-03-21T01:10:00.819Z,59.98
2023-03-21T01:12:47.646Z,59.43
2023-03-21T01:15:35.506Z,59.97
2023-03-21T01:18:25.927Z,59.78
2023-03-21T01:21:14.258Z,59.53
2023-03-21T01:24:01.768Z,59.90
2023-03-21T01:26:48.692Z,59.32
2023-03-21T01:29:35.544Z,59.35
2023-03-21T01:32:22.374Z,59.41
2023-03-21T01:35:09.416Z,59.59
2023-03-21T01:37:56.853Z,59.76
2023-03-21T01:40:46.499Z,59.58
2023-03-21T01:43:35.868Z,59.53
2023-03-21T01:46:32.293Z,59.48
2023-03-21T01:49:46.458Z,59.90
2023-03-21T01:52:38.696Z,60.01
2023-03-21T01:55:26.115Z,59.46
2023-03-21T01:58:14.106Z,60.18
2023-03-21T02:01:01.217Z,59.62
2023-03-21T02:03:51.380Z,59.58
2023-03-21T02:06:46.868Z,59.70
2023-03-21T02:09:35.955Z,60.27
2023-03-21T02:12:22.680Z,60.00
2023-03-21T02:15:10.253Z,59.63
2023-03-21T02:18:03.346Z,60.11
2023-03-21T02:21:05.583Z,60.00
2023-03-21T02:24:20.188Z,60.12
2023-03-21T02:27:18.638Z,60.30
2023-03-21T02:30:51.795Z,59.90
2023-03-21T02:34:09.743Z,59.77
2023-03-21T02:37:03.243Z,60.08
2023-03-21T02:40:09.336Z,59.82
2023-03-21T02:43:23.589Z,60.11
2023-03-21T02:46:18.005Z,59.71
2023-03-21T02:49:20.248Z,60.27
2023-03-21T02:52:15.522Z,59.60
2023-03-21T02:55:22.470Z,59.96
2023-03-21T02:58:19.060Z,60.05
2023-03-21T03:01:09.042Z,59.70
2023-03-21T03:03:56.487Z,59.74
2023-03-21T03:07:03.815Z,60.10
2023-03-21T03:10:14.566Z,60.11
2023-03-21T03:13:42.737Z,60.05
2023-03-21T03:16:39.817Z,60.24
2023-03-21T03:19:31.218Z,60.07
2023-03-21T03:22:29.690Z,60.23
2023-03-21T03:25:35.761Z,60.06
2023-03-21T03:28:31.959Z,59.90
2023-03-21T03:31:27.121Z,60.37
2023-03-21T03:34:17.004Z,60.03
2023-03-21T03:37:08.246Z,60.38
2023-03-21T03:40:19.014Z,60.37
2023-03-21T03:43:11.493Z,59.73
2023-03-21T03:46:07.245Z,60.26
2023-03-21T03:49:01.856Z,60.48
2023-03-21T03:52:06.499Z,60.39
2023-03-21T03:54:53.876Z,59.86
2023-03-21T03:57:40.946Z,60.11
2023-03-21T04:00:28.224Z,60.43
2023-03-21T04:03:16.048Z,60.55
2023-03-21T04:06:04.020Z,60.47
2023-03-21T04:08:51.046Z,60.27
2023-03-21T04:11:38.088Z,60.69
2023-03-21T04:14:35.519Z,59.92
2023-03-21T04:17:29.113Z,60.17
2023-03-21T04:20:23.783Z,60.71
2023-03-21T04:23:20.993Z,60.61
2023-03-21T04:26:08.080Z,60.30
2023-03-21T04:28:54.970Z,60.25
2023-03-21T04:31:41.953Z,60.12
2023-03-21T04:34:29.026Z,60.09
2023-03-21T04:37:17.684Z,60.72
2023-03-21T04:40:06.974Z,59.92
2023-03-21T04:42:54.057Z,59.90
2023-03-21T04:45:40.988Z,59.87
2023-03-21T04:48:27.935Z,60.59
2023-03-21T04:51:16.076Z,60.11
2023-03-21T04:54:03.222Z,60.12
2023-03-21T04:56:52.057Z,60.33
2023-03-21T04:59:39.014Z,60.09
2023-03-21T05:02:25.921Z,60.83
2023-03-21T05:05:13.587Z,60.51
2023-03-21T05:08:00.633Z,60.10
2023-03-21T05:10:47.754Z,60.85
2023-03-21T05:13:34.586Z,60.03
2023-03-21T05:16:25.520Z,60.46
2023-03-21T05:19:13.982Z,60.43
2023-03-21T05:22:10.130Z,60.07
2023-03-21T05:24:57.013Z,60.46
2023-03-21T05:27:45.395Z,60.45
2023-03-21T05:30:32.658Z,60.91
2023-03-21T05:33:19.495Z,60.80
2023-03-21T05:36:06.848Z,60.35
2023-03-21T05:38:53.784Z,60.45
2023-03-21T05:41:40.744Z,60.24
2023-03-21T05:44:27.566Z,60.62
2023-03-21T05:47:17.182Z,60.91
2023-03-21T05:50:04.551Z,60.51
2023-03-21T05:52:51.384Z,60.67
2023-03-21T05:55:39.709Z,60.15
2023-03-21T05:58:26.691Z,60.62
2023-03-21T06:01:13.614Z,61.08
2023-03-21T06:04:00.480Z,60.70
2023-03-21T06:06:47.498Z,60.09
2023-03-21T06:09:34.413Z,60.34
2023-03-21T06:12:21.244Z,60.74
2023-03-21T06:15:09.026Z,60.92
2023-03-21T06:17:55.947Z,60.72
2023-03-21T06:20:42.853Z,60.52
2023-03-21T06:23:30.085Z,60.29
2023-03-21T06:26:19.736Z,60.67
2023-03-21T06:29:06.580Z,60.82
2023-03-21T06:31:53.422Z,60.82
2023-03-21T06:34:40.506Z,60.87
2023-03-21T06:37:27.521Z,60.15
2023-03-21T06:40:14.748Z,60.54
2023-03-21T06:43:01.607Z,61.04
2023-03-21T06:45:48.494Z,60.92
2023-03-21T06:48:35.382Z,61.07
2023-03-21T06:51:22.225Z,60.98
2023-03-21T06:54:09.347Z,60.84
2023-03-21T06:56:56.715Z,60.24
2023-03-21T06:59:43.595Z,60.39
2023-03-21T07:02:30.858Z,60.65
2023-03-21T07:05:17.804Z,59.92
2023-03-21T07:08:05.718Z,60.14
2023-03-21T07:10:56.233Z,60.41
2023-03-21T07:13:43.204Z,60.26
2023-03-21T07:16:30.268Z,60.42
2023-03-21T07:19:17.175Z,59.91
2023-03-21T07:22:04.884Z,60.38
2023-03-21T07:25:03.974Z,60.42
2023-03-21T07:27:51.393Z,60.44
2023-03-21T07:30:38.289Z,59.76
2023-03-21T07:33:25.938Z,59.77
2023-03-21T07:36:15.529Z,59.77
2023-03-21T07:39:02.570Z,60.47
2023-03-21T07:41:49.418Z,60.14
2023-03-21T07:44:37.106Z,60.19
2023-03-21T07:47:24.004Z,59.68
2023-03-21T07:50:11.019Z,59.50
2023-03-21T07:52:57.881Z,59.84
2023-03-21T07:55:44.731Z,59.48
2023-03-21T07:58:34.182Z,59.90
2023-03-21T08:01:21.798Z,59.87
2023-03-21T08:04:08.685Z,59.68
2023-03-21T08:06:55.685Z,59.42
2023-03-21T08:09:45.638Z,59.61
2023-03-21T08:12:32.510Z,59.44
2023-03-21T08:15:19.944Z,59.02
2023-03-21T08:18:06.834Z,59.06
2023-03-21T08:20:54.907Z,58.65
2023-03-21T08:23:41.784Z,58.82
2023-03-21T08:26:28.662Z,58.40
2023-03-21T08:29:15.531Z,58.32
2023-03-21T08:32:02.351Z,58.24
2023-03-21T08:34:49.195Z,58.33
2023-03-21T08:37:40.178Z,58.46
2023-03-21T08:40:27.204Z,58.44
2023-03-21T08:43:14.896Z,58.55
2023-03-21T08:46:04.233Z,58.46
2023-03-21T08:48:52.749Z,58.01
2023-03-21T08:51:41.191Z,58.20
2023-03-21T08:54:28.183Z,58.09
2023-03-21T08:57:15.088Z,58.03
2023-03-21T09:00:01.965Z,58.26
2023-03-21T09:02:51.492Z,56.86
2023-03-21T09:05:38.596Z,55.56
2023-03-21T09:08:25.651Z,53.95
2023-03-21T09:11:12.509Z,52.96
2023-03-21T09:13:59.378Z,51.74
2023-03-21T09:16:46.268Z,50.90
2023-03-21T09:19:34.853Z,51.07
2023-03-21T09:22:23.505Z,48.76
2023-03-21T09:25:11.556Z,49.26
2023-03-21T09:27:59.533Z,49.53
2023-03-21T09:30:46.434Z,48.75
2023-03-21T09:33:35.235Z,48.75
2023-03-21T09:36:25.015Z,48.89
2023-03-21T09:39:12.748Z,48.53
2023-03-21T09:42:13.191Z,49.19
2023-03-21T09:45:21.765Z,49.97
2023-03-21T09:48:31.241Z,49.77
2023-03-21T09:51:18.992Z,50.47
2023-03-21T09:54:20.930Z,51.12
2023-03-21T09:57:19.672Z,51.04
2023-03-21T10:00:16.441Z,50.99
2023-03-21T10:03:07.426Z,51.74
2023-03-21T10:05:58.639Z,51.93
2023-03-21T10:08:47.093Z,51.57
2023-03-21T10:11:43.597Z,51.23
2023-03-21T10:14:36.615Z,51.83
2023-03-21T10:18:22.415Z,51.62
2023-03-21T10:21:31.876Z,51.56
2023-03-21T10:24:26.567Z,51.64
2023-03-21T10:27:14.614Z,51.73
2023-03-21T10:30:02.325Z,51.45
2023-03-21T10:32:49.315Z,52.03
2023-03-21T10:35:37.517Z,52.44
2023-03-21T10:38:26.411Z,52.10
2023-03-21T10:41:13.311Z,52.24
2023-03-21T10:44:11.756Z,52.24
2023-03-21T10:47:06.739Z,52.65
2023-03-21T10:50:10.491Z,52.23
2023-03-21T10:53:00.785Z,52.83
2023-03-21T10:55:59.782Z,52.38
2023-03-21T10:58:47.000Z,52.23
2023-03-21T11:01:41.959Z,52.21
2023-03-21T11:04:29.683Z,51.96
2023-03-21T11:07:19.258Z,52.77
2023-03-21T11:10:20.050Z,52.34
2023-03-21T11:13:24.157Z,51.96
2023-03-21T11:16:18.497Z,52.18
2023-03-21T11:19:20.641Z,52.57
2023-03-21T11:22:08.238Z,52.43
2023-03-21T11:25:01.189Z,52.46
2023-03-21T11:27:53.231Z,52.29
2023-03-21T11:30:56.494Z,52.13
2023-03-21T11:34:06.496Z,52.29
2023-03-21T11:36:58.331Z,51.82
2023-03-21T11:39:45.659Z,51.75
2023-03-21T11:42:39.968Z,51.90
2023-03-21T11:45:33.022Z,51.91
2023-03-21T11:48:19.919Z,52.18
2023-03-21T11:52:13.345Z,51.76
2023-03-21T11:55:18.141Z,51.64
2023-03-21T11:58:30.756Z,51.64
2023-03-21T12:01:25.111Z,51.61
2023-03-21T12:04:27.370Z,51.89
2023-03-21T12:07:39.359Z,51.62
2023-03-21T12:10:51.067Z,51.58
2023-03-21T12:13:48.447Z,52.04
2023-03-21T12:16:49.603Z,51.50
2023-03-21T12:19:57.908Z,51.39
2023-03-21T12:23:07.542Z,51.59
2023-03-21T12:26:03.057Z,51.69
2023-03-21T12:29:37.507Z,50.82
2023-03-21T12:32:51.747Z,51.47
2023-03-21T12:36:00.785Z,50.91
2023-03-21T12:39:04.246Z,50.70
2023-03-21T12:42:28.354Z,51.24
2023-03-21T12:45:19.406Z,51.40
2023-03-21T12:48:21.618Z,51.06
2023-03-21T12:51:13.050Z,50.89
2023-03-21T12:54:07.690Z,51.06
2023-03-21T12:57:02.906Z,50.86
2023-03-21T12:59:49.659Z,51.00
2023-03-21T13:02:41.575Z,51.10
2023-03-21T13:05:49.546Z,50.83
2023-03-21T13:08:55.188Z,51.21
2023-03-21T13:11:42.577Z,51.16
2023-03-21T13:14:34.705Z,51.11
2023-03-21T13:17:32.829Z,50.70
2023-03-21T13:20:33.371Z,50.89
2023-03-21T13:23:22.636Z,50.92
2023-03-21T13:26:12.626Z,51.22
2023-03-21T13:29:00.608Z,50.99
2023-03-21T13:31:54.619Z,50.95
2023-03-21T13:34:44.647Z,51.02
2023-03-21T13:37:34.808Z,51.00
2023-03-21T13:40:49.564Z,51.21
2023-03-21T13:43:52.671Z,50.91
2023-03-21T13:46:54.852Z,51.01
2023-03-21T13:49:41.960Z,50.99
2023-03-21T13:52:28.930Z,51.10
2023-03-21T13:55:20.004Z,51.22
2023-03-21T13:58:24.436Z,50.90
2023-03-21T14:01:17.425Z,51.17
2023-03-21T14:04:14.049Z,51.21
2023-03-21T14:07:31.248Z,49.33
2023-03-21T14:10:21.109Z,50.09
2023-03-21T14:13:10.827Z,49.89
2023-03-21T14:16:02.465Z,49.95
2023-03-21T14:18:56.422Z,49.70
2023-03-21T14:21:50.326Z,49.37
2023-03-21T14:24:37.379Z,49.25
2023-03-21T14:27:26.195Z,49.65
2023-03-21T14:30:19.553Z,49.31
2023-03-21T14:33:20.348Z,48.75
2023-03-21T14:36:11.749Z,48.31
2023-03-21T14:39:15.946Z,48.71
2023-03-21T14:42:02.678Z,48.79
2023-03-21T14:44:55.892Z,48.64
2023-03-21T14:48:14.326Z,48.82
2023-03-21T14:51:04.060Z,48.93
2023-03-21T14:53:50.921Z,48.46
2023-03-21T14:56:38.802Z,48.61
2023-03-21T14:59:27.372Z,48.21
2023-03-21T15:02:26.216Z,48.57
2023-03-21T15:05:22.617Z,48.78
2023-03-21T15:08:21.152Z,48.46
2023-03-21T15:11:12.574Z,48.43
2023-03-21T15:14:07.261Z,48.78
2023-03-21T15:16:54.691Z,48.43
2023-03-21T15:19:43.602Z,48.68
2023-03-21T15:22:31.615Z,48.74
2023-03-21T15:25:22.929Z,48.69
2023-03-21T15:28:14.247Z,48.54
2023-03-21T15:31:01.547Z,48.42
2023-03-21T15:33:49.492Z,48.65
2023-03-21T15:36:42.417Z,48.38
2023-03-21T15:39:29.578Z,48.45
2023-03-21T15:42:27.459Z,47.89
2023-03-21T15:45:24.905Z,48.29
2023-03-21T15:48:14.314Z,48.37
2023-03-21T15:51:06.885Z,48.29
2023-03-21T15:53:56.985Z,48.20
2023-03-21T15:56:46.149Z,48.26
2023-03-21T15:59:40.336Z,48.43
2023-03-21T16:02:30.050Z,48.49
2023-03-21T16:05:28.477Z,48.25
2023-03-21T16:08:27.243Z,48.62
2023-03-21T16:11:16.131Z,48.78
2023-03-21T16:14:03.224Z,48.30
2023-03-21T16:16:50.807Z,47.45
2023-03-21T16:19:37.802Z,47.15
2023-03-21T16:22:24.756Z,46.63
2023-03-21T16:25:11.692Z,46.40
2023-03-21T16:27:58.805Z,47.07
2023-03-21T16:30:45.694Z,46.71
2023-03-21T16:33:32.507Z,46.57
2023-03-21T16:36:21.615Z,46.61
2023-03-21T16:39:20.489Z,46.52
2023-03-21T16:42:07.336Z,46.40
2023-03-21T16:44:54.151Z,46.52
2023-03-21T16:47:41.117Z,46.81
2023-03-21T16:50:41.085Z,46.79
2023-03-21T16:53:28.268Z,46.66
2023-03-21T16:56:18.463Z,46.59
2023-03-21T16:59:06.003Z,47.10
2023-03-21T17:01:52.903Z,46.57
2023-03-21T17:04:39.833Z,46.85
2023-03-21T17:07:26.682Z,46.92
2023-03-21T17:10:33.793Z,46.69
2023-03-21T17:13:20.640Z,46.64
2023-03-21T17:16:07.734Z,46.89
2023-03-21T17:18:54.897Z,46.71
2023-03-21T17:21:42.279Z,46.69
2023-03-21T17:24:29.244Z,46.73
2023-03-21T17:27:18.279Z,46.96
2023-03-21T17:30:13.016Z,46.88
2023-03-21T17:33:00.010Z,47.40
2023-03-21T17:35:47.220Z,47.05
2023-03-21T17:38:34.072Z,47.34
2023-03-21T17:41:21.088Z,47.24
2023-03-21T17:44:07.977Z,47.27
2023-03-21T17:46:54.893Z,47.46
2023-03-21T17:49:42.186Z,47.47
2023-03-21T17:52:29.203Z,47.45
2023-03-21T17:55:21.169Z,47.02
2023-03-21T17:58:08.203Z,47.47
2023-03-21T18:00:55.060Z,47.48
2023-03-21T18:03:41.970Z,47.30
2023-03-21T18:06:28.896Z,47.26
2023-03-21T18:09:20.195Z,47.59
2023-03-21T18:12:08.450Z,47.28
2023-03-21T18:14:55.918Z,47.16
2023-03-21T18:17:42.856Z,47.09
2023-03-21T18:20:50.463Z,47.18
2023-03-21T18:23:38.821Z,47.27
2023-03-21T18:26:25.986Z,47.16
2023-03-21T18:32:23.679Z,47.49
2023-03-21T18:35:12.860Z,47.38
2023-03-21T18:37:59.976Z,47.51
2023-03-21T18:40:47.060Z,47.45
2023-03-21T18:44:02.919Z,47.60
2023-03-21T18:46:46.974Z,47.51
2023-03-21T18:52:42.405Z,47.62
2023-03-21T18:55:44.355Z,47.90
2023-03-21T18:58:31.821Z,47.91
2023-03-21T19:01:18.775Z,47.78
2023-03-21T19:04:20.738Z,47.83
2023-03-21T19:07:09.817Z,47.78
2023-03-21T19:10:16.413Z,47.80
2023-03-21T19:13:06.638Z,47.90
2023-03-21T19:15:54.136Z,47.95
2023-03-21T19:18:57.488Z,48.16
2023-03-21T19:21:48.180Z,48.01
2023-03-21T19:24:35.000Z,48.07
2023-03-21T19:27:21.856Z,48.35
2023-03-21T19:30:15.712Z,48.33
2023-03-21T19:33:02.817Z,48.22
2023-03-21T19:36:06.135Z,48.26
2023-03-21T19:38:57.619Z,48.41
2023-03-21T19:41:44.566Z,48.52
2023-03-21T19:44:32.749Z,48.34
2023-03-21T19:47:20.744Z,48.33
2023-03-21T19:53:15.696Z,48.51
2023-03-21T19:56:07.520Z,48.59
2023-03-21T19:58:57.871Z,48.55
2023-03-21T20:01:44.833Z,48.59
2023-03-21T20:04:31.698Z,48.81
2023-03-21T20:07:18.503Z,48.71
2023-03-21T20:10:09.484Z,48.83
2023-03-21T20:12:56.651Z,48.71
2023-03-21T20:15:48.100Z,48.86
2023-03-21T20:18:36.804Z,49.06
2023-03-21T20:21:25.839Z,49.05
2023-03-21T20:24:13.034Z,49.05
2023-03-21T20:26:59.943Z,49.31
2023-03-21T20:32:54.573Z,49.38
2023-03-21T20:38:48.625Z,49.50
2023-03-21T20:41:35.455Z,49.51
2023-03-21T20:47:29.175Z,49.74
2023-03-21T20:50:22.090Z,49.70
2023-03-21T20:53:09.670Z,49.78
2023-03-21T20:55:57.613Z,49.88
2023-03-21T20:59:01.970Z,49.80
2023-03-21T21:01:52.049Z,49.80
2023-03-21T21:04:55.730Z,50.47
2023-03-21T21:07:48.832Z,49.91
2023-03-21T21:11:03.958Z,49.84
2023-03-21T21:13:45.501Z,50.06
2023-03-21T21:16:32.868Z,50.27
2023-03-21T21:19:21.705Z,49.95
2023-03-21T21:22:08.564Z,50.18
2023-03-21T21:24:55.412Z,50.10
2023-03-21T21:27:42.676Z,50.23
2023-03-21T21:30:31.619Z,50.19
2023-03-21T21:33:20.862Z,50.68
2023-03-21T21:36:10.274Z,50.71
2023-03-21T21:38:57.157Z,50.48
2023-03-21T21:41:44.072Z,50.62
2023-03-21T21:44:31.263Z,50.39
2023-03-21T21:47:18.099Z,50.77
2023-03-21T21:50:05.676Z,50.80
2023-03-21T21:52:52.750Z,51.13
2023-03-21T21:55:40.163Z,51.01
2023-03-21T21:58:26.996Z,51.06
2023-03-21T22:01:13.911Z,51.28
2023-03-21T22:04:07.967Z,51.25
2023-03-21T22:06:55.478Z,50.96
2023-03-21T22:09:43.210Z,50.94
2023-03-21T22:12:30.335Z,51.36
2023-03-21T22:15:18.232Z,51.12
2023-03-21T22:18:05.158Z,51.46
2023-03-21T22:20:52.243Z,51.55
2023-03-21T22:23:41.315Z,51.28
2023-03-21T22:26:28.225Z,51.74
2023-03-21T22:29:15.600Z,51.39
2023-03-21T22:32:02.500Z,51.73
2023-03-21T22:34:49.475Z,51.27
2023-03-21T22:37:38.261Z,51.64
2023-03-21T22:40:25.077Z,51.87
2023-03-21T22:43:11.909Z,51.33
2023-03-21T22:45:58.800Z,51.37
2023-03-21T22:48:45.863Z,51.95
2023-03-21T22:51:33.064Z,51.83
2023-03-21T22:54:20.336Z,51.90
2023-03-21T22:57:08.605Z,51.37
2023-03-21T22:59:55.619Z,51.48
2023-03-21T23:02:42.552Z,52.05
2023-03-21T23:05:29.577Z,52.04
2023-03-21T23:08:16.466Z,51.68
2023-03-21T23:11:07.612Z,51.68
2023-03-21T23:14:07.301Z,52.16
2023-03-21T23:16:54.812Z,52.23
2023-03-21T23:19:41.736Z,51.62
2023-03-21T23:22:32.829Z,51.48
2023-03-21T23:25:22.023Z,52.09
2023-03-21T23:28:08.890Z,51.99
2023-03-21T23:30:55.994Z,52.46
2023-03-21T23:33:43.669Z,52.21
2023-03-21T23:36:30.686Z,52.56
2023-03-21T23:39:18.667Z,51.97
2023-03-21T23:42:06.558Z,52.38
2023-03-21T23:44:53.404Z,51.88
2023-03-21T23:47:40.356Z,51.92
2023-03-21T23:50:27.314Z,52.32
2023-03-21T23:53:14.180Z,52.24
2023-03-21T23:56:01.774Z,52.20
2023-03-21T23:58:49.969Z,52.57
